Weather at San Diego Police Headquarters Heliport

Public forecast

Using degrees Fahrenheit for public forecast. Weather courtesy of forecast.io.

Closest aviation weather report (METAR) to San Diego Police Headquarters Heliport

Closest report is San Diego International Airport, 2.3 nm (4.2 km) WNW.

2024/07/17 12:51 (retrieved 39 minutes ago)

KSAN 171251Z 29004KT 10SM OVC011 21/17 A2999 RMK AO2 SLP154 T02060172

Closest aviation forecast (TAF) to San Diego Police Headquarters Heliport

Closest forecast is San Diego International Airport, 2.3 nm (4.2 km) WNW.

2024/07/17 12:22 (retrieved 1 hour ago)

TAF KSAN 171120Z 1712/1818 VRB03KT P6SM OVC012 FM171800 26009KT P6SM SCT015 FM180200 24005KT P6SM SCT015 FM180500 VRB04KT P6SM OVC012 FM181700 20005KT P6SM SCT015